createdAt,value
2024-01-05T00:00:51.245Z,3.00
2024-01-05T00:03:18.773Z,3.00
2024-01-05T00:05:46.391Z,2.80
2024-01-05T00:08:13.773Z,2.53
2024-01-05T00:10:42.488Z,2.53
2024-01-05T00:13:09.966Z,2.80
2024-01-05T00:15:37.522Z,3.07
2024-01-05T00:18:06.281Z,2.83
2024-01-05T00:20:34.443Z,2.57
2024-01-05T00:23:01.833Z,2.60
2024-01-05T00:25:29.221Z,2.50
2024-01-05T00:27:57.947Z,2.67
2024-01-05T00:30:25.401Z,2.17
2024-01-05T00:32:53.099Z,2.80
2024-01-05T00:35:20.676Z,2.33
2024-01-05T00:37:48.050Z,2.57
2024-01-05T00:40:16.008Z,2.60
2024-01-05T00:42:44.303Z,2.13
2024-01-05T00:45:13.071Z,2.67
2024-01-05T00:47:40.642Z,2.27
2024-01-05T00:50:08.837Z,2.37
2024-01-05T00:52:36.247Z,2.40
2024-01-05T00:55:03.686Z,2.27
2024-01-05T00:57:32.669Z,2.80
2024-01-05T01:00:00.369Z,3.07
2024-01-05T01:02:30.400Z,2.80
2024-01-05T01:04:57.938Z,2.83
2024-01-05T01:07:26.003Z,2.90
2024-01-05T01:09:53.415Z,2.70
2024-01-05T01:12:21.366Z,2.60
2024-01-05T01:14:48.875Z,2.70
2024-01-05T01:17:18.180Z,2.67
2024-01-05T01:19:47.497Z,2.83
2024-01-05T01:22:14.935Z,3.00
2024-01-05T01:24:44.711Z,3.40
2024-01-05T01:27:12.179Z,3.03
2024-01-05T01:29:40.476Z,3.50
2024-01-05T01:32:10.195Z,3.50
2024-01-05T01:34:38.559Z,3.47
2024-01-05T01:37:07.478Z,3.73
2024-01-05T01:39:35.211Z,4.10
2024-01-05T01:42:02.735Z,3.57
2024-01-05T01:44:31.256Z,4.37
2024-01-05T01:46:59.475Z,4.47
2024-01-05T01:49:27.908Z,3.77
2024-01-05T01:51:55.599Z,4.10
2024-01-05T01:54:24.531Z,3.80
2024-01-05T01:56:52.599Z,3.90
2024-01-05T01:59:20.147Z,4.00
2024-01-05T02:01:47.740Z,3.83
2024-01-05T02:04:17.332Z,3.77
2024-01-05T02:06:46.217Z,3.80
2024-01-05T02:09:14.129Z,3.27
2024-01-05T02:11:44.552Z,2.97
2024-01-05T02:14:11.988Z,2.77
2024-01-05T02:16:42.701Z,2.70
2024-01-05T02:19:10.566Z,3.50
2024-01-05T02:21:41.284Z,2.60
2024-01-05T02:24:10.310Z,3.03
2024-01-05T02:26:37.788Z,2.77
2024-01-05T02:29:05.607Z,3.30
2024-01-05T02:35:05.897Z,1.90
2024-01-05T02:37:35.089Z,1.40
2024-01-05T02:40:04.246Z,1.10
2024-01-05T02:42:32.226Z,1.00
2024-01-05T02:44:59.819Z,1.00
2024-01-05T02:47:27.465Z,1.10
2024-01-05T02:49:55.120Z,0.73
2024-01-05T02:52:24.464Z,0.70
2024-01-05T02:54:51.982Z,0.87
2024-01-05T02:57:21.160Z,1.00
2024-01-05T02:59:48.565Z,1.43
2024-01-05T03:02:16.017Z,2.70
2024-01-05T03:04:44.360Z,2.70
2024-01-05T03:07:13.066Z,1.90
2024-01-05T03:09:40.527Z,1.20
2024-01-05T03:12:08.992Z,1.20
2024-01-05T03:14:37.953Z,0.80
2024-01-05T03:17:06.777Z,0.90
2024-01-05T03:19:34.257Z,0.70
2024-01-05T03:22:02.987Z,0.80
2024-01-05T03:24:30.562Z,0.70
2024-01-05T03:26:59.142Z,0.57
2024-01-05T03:29:26.587Z,0.60
2024-01-05T03:31:55.841Z,0.73
2024-01-05T03:34:24.250Z,1.20
2024-01-05T03:36:51.736Z,1.30
2024-01-05T03:39:19.495Z,1.33
2024-01-05T03:41:47.043Z,1.20
2024-01-05T03:44:21.314Z,1.20
2024-01-05T03:46:49.141Z,0.90
2024-01-05T03:49:18.060Z,0.77
2024-01-05T03:51:45.582Z,0.90
2024-01-05T03:54:13.093Z,0.60
2024-01-05T03:56:41.476Z,0.70
2024-01-05T03:59:09.233Z,0.70
2024-01-05T04:01:43.539Z,0.53
2024-01-05T04:04:11.041Z,0.40
2024-01-05T04:06:41.345Z,0.90
2024-01-05T04:09:10.849Z,0.80
2024-01-05T04:11:38.608Z,0.60
2024-01-05T04:14:06.080Z,0.73
2024-01-05T04:16:34.757Z,0.77
2024-01-05T04:19:02.783Z,0.80
2024-01-05T04:21:30.526Z,0.70
2024-01-05T04:23:59.797Z,0.87
2024-01-05T04:26:28.620Z,0.60
2024-01-05T04:28:57.213Z,1.30
2024-01-05T04:31:25.247Z,0.80
2024-01-05T04:33:52.864Z,0.57
2024-01-05T04:36:20.777Z,0.60
2024-01-05T04:38:49.006Z,0.57
2024-01-05T04:41:19.044Z,0.93
2024-01-05T04:43:46.705Z,0.50
2024-01-05T04:46:14.412Z,0.60
2024-01-05T04:48:41.985Z,0.60
2024-01-05T04:51:09.542Z,1.00
2024-01-05T04:53:37.347Z,0.60
2024-01-05T04:56:05.217Z,0.80
2024-01-05T04:58:33.941Z,0.80
2024-01-05T05:01:01.415Z,0.77
2024-01-05T05:03:31.312Z,1.17
2024-01-05T05:05:58.902Z,0.60
2024-01-05T05:08:26.315Z,0.73
2024-01-05T05:10:53.716Z,0.60
2024-01-05T05:13:21.297Z,0.77
2024-01-05T05:15:51.026Z,0.80
2024-01-05T05:18:18.582Z,0.57
2024-01-05T05:20:46.225Z,0.53
2024-01-05T05:23:13.614Z,0.60
2024-01-05T05:25:41.027Z,1.10
2024-01-05T05:28:08.413Z,1.60
2024-01-05T05:30:36.699Z,0.77
2024-01-05T05:33:05.906Z,0.90
2024-01-05T05:35:33.632Z,0.80
2024-01-05T05:38:04.246Z,0.63
2024-01-05T05:40:33.564Z,0.50
2024-01-05T05:43:00.966Z,0.87
2024-01-05T05:45:29.803Z,0.63
2024-01-05T05:47:57.502Z,0.70
2024-01-05T05:50:27.074Z,0.57
2024-01-05T05:52:55.028Z,0.80
2024-01-05T05:55:23.476Z,0.73
2024-01-05T05:57:50.866Z,0.70
2024-01-05T06:00:18.587Z,0.80
2024-01-05T06:02:45.997Z,0.60
2024-01-05T06:05:13.889Z,0.47
2024-01-05T06:07:42.636Z,0.60
2024-01-05T06:10:10.217Z,0.50
2024-01-05T06:12:37.748Z,0.70
2024-01-05T06:15:05.854Z,0.70
2024-01-05T06:17:33.392Z,0.70
2024-01-05T06:20:00.797Z,0.60
2024-01-05T06:22:28.235Z,0.50
2024-01-05T06:24:57.411Z,0.60
2024-01-05T06:27:32.657Z,0.47
2024-01-05T06:30:03.963Z,0.80
2024-01-05T06:32:31.494Z,0.80
2024-01-05T06:34:58.910Z,0.60
2024-01-05T06:37:26.293Z,0.67
2024-01-05T06:39:53.743Z,0.60
2024-01-05T06:42:23.414Z,0.63
2024-01-05T06:44:51.495Z,0.77
2024-01-05T06:47:19.459Z,0.73
2024-01-05T06:49:47.546Z,0.97
2024-01-05T06:52:14.979Z,0.73
2024-01-05T06:54:42.439Z,0.73
2024-01-05T06:57:09.863Z,1.13
2024-01-05T06:59:39.158Z,1.10
2024-01-05T07:02:07.098Z,1.20
2024-01-05T07:04:34.546Z,1.13
2024-01-05T07:07:02.436Z,1.27
2024-01-05T07:09:29.910Z,1.97
2024-01-05T07:11:57.446Z,1.43
2024-01-05T07:14:25.143Z,1.63
2024-01-05T07:16:54.356Z,1.67
2024-01-05T07:19:22.193Z,1.70
2024-01-05T07:21:49.861Z,2.00
2024-01-05T07:24:17.501Z,1.80
2024-01-05T07:26:45.636Z,1.87
2024-01-05T07:29:13.041Z,1.60
2024-01-05T07:31:40.570Z,1.53
2024-01-05T07:34:10.545Z,1.40
2024-01-05T07:36:43.688Z,1.57
2024-01-05T07:39:12.298Z,1.60
2024-01-05T07:41:40.366Z,1.70
2024-01-05T07:44:06.938Z,1.27
2024-01-05T07:46:34.345Z,1.70
2024-01-05T07:49:01.868Z,5.10
2024-01-05T07:51:30.613Z,3.80
2024-01-05T07:53:58.171Z,2.30
2024-01-05T07:56:25.658Z,2.37
2024-01-05T07:58:53.064Z,1.40
2024-01-05T08:01:21.897Z,1.20
2024-01-05T08:03:50.177Z,1.17
2024-01-05T08:06:17.827Z,1.10
2024-01-05T08:08:47.436Z,0.87
2024-01-05T08:11:15.413Z,1.03
2024-01-05T08:13:43.352Z,0.87
2024-01-05T08:16:10.967Z,1.10
2024-01-05T08:18:41.414Z,1.00
2024-01-05T08:21:09.035Z,0.80
2024-01-05T08:23:36.618Z,0.93
2024-01-05T08:26:05.740Z,1.00
2024-01-05T08:28:33.302Z,0.90
2024-01-05T08:31:01.632Z,0.80
2024-01-05T08:33:29.946Z,0.67
2024-01-05T08:35:57.529Z,0.70
2024-01-05T08:38:25.859Z,0.70
2024-01-05T08:40:53.913Z,0.67
2024-01-05T08:43:22.797Z,0.90
2024-01-05T08:45:51.197Z,1.00
2024-01-05T08:48:18.773Z,0.80
2024-01-05T08:50:46.949Z,0.80
2024-01-05T08:53:15.097Z,0.70
2024-01-05T08:55:42.495Z,0.77
2024-01-05T08:58:11.478Z,0.80
2024-01-05T09:00:41.262Z,0.90
2024-01-05T09:03:09.103Z,0.70
2024-01-05T09:05:36.658Z,0.70
2024-01-05T09:08:04.423Z,0.70
2024-01-05T09:10:34.375Z,1.00
2024-01-05T09:13:01.984Z,0.47
2024-01-05T09:15:29.600Z,0.80
2024-01-05T09:17:58.919Z,0.70
2024-01-05T09:20:26.751Z,0.53
2024-01-05T09:22:54.777Z,0.57
2024-01-05T09:25:23.344Z,0.90
2024-01-05T09:27:51.475Z,0.97
2024-01-05T09:30:19.154Z,0.90
2024-01-05T09:32:46.656Z,1.10
2024-01-05T09:35:15.831Z,0.80
2024-01-05T09:37:43.945Z,0.80
2024-01-05T09:40:12.604Z,0.60
2024-01-05T09:42:41.547Z,1.03
2024-01-05T09:45:12.285Z,0.90
2024-01-05T09:47:40.305Z,0.80
2024-01-05T09:50:10.170Z,0.80
2024-01-05T09:52:38.963Z,0.87
2024-01-05T09:55:06.729Z,1.10
2024-01-05T09:57:34.389Z,1.00
2024-01-05T10:00:04.650Z,0.90
2024-01-05T10:02:42.442Z,0.77
2024-01-05T10:05:10.757Z,0.93
2024-01-05T10:07:44.376Z,1.80
2024-01-05T10:10:13.931Z,3.60
2024-01-05T10:12:42.453Z,3.60
2024-01-05T10:15:12.813Z,2.70
2024-01-05T10:17:40.343Z,2.43
2024-01-05T10:20:15.273Z,2.00
2024-01-05T10:22:47.671Z,2.20
2024-01-05T10:25:16.309Z,2.07
2024-01-05T10:27:44.434Z,1.20
2024-01-05T10:30:12.803Z,1.10
2024-01-05T10:32:40.647Z,0.80
2024-01-05T10:35:10.387Z,1.20
2024-01-05T10:37:38.186Z,0.90
2024-01-05T10:40:09.296Z,0.93
2024-01-05T10:42:36.848Z,0.73
2024-01-05T10:45:06.031Z,1.20
2024-01-05T10:47:34.884Z,1.10
2024-01-05T10:50:02.897Z,1.17
2024-01-05T10:52:32.497Z,1.00
2024-01-05T10:55:04.041Z,1.00
2024-01-05T10:57:37.160Z,1.00
2024-01-05T11:00:07.297Z,1.03
2024-01-05T11:02:39.875Z,1.10
2024-01-05T11:05:09.309Z,1.03
2024-01-05T11:07:37.168Z,0.87
2024-01-05T11:10:10.097Z,0.93
2024-01-05T11:12:45.156Z,0.90
2024-01-05T11:15:23.815Z,1.20
2024-01-05T11:18:01.947Z,1.50
2024-01-05T11:20:36.302Z,0.70
2024-01-05T11:23:04.052Z,1.43
2024-01-05T11:25:31.464Z,0.90
2024-01-05T11:28:00.511Z,0.93
2024-01-05T11:30:45.231Z,0.87
2024-01-05T11:33:33.131Z,0.90
2024-01-05T11:36:04.078Z,0.80
2024-01-05T11:38:31.721Z,1.00
2024-01-05T11:40:59.153Z,0.90
2024-01-05T11:43:36.483Z,1.13
2024-01-05T11:46:05.440Z,0.60
2024-01-05T11:48:53.519Z,0.90
2024-01-05T11:51:21.281Z,0.80
2024-01-05T11:53:51.401Z,0.90
2024-01-05T11:56:23.168Z,0.80
2024-01-05T11:58:52.637Z,0.90
2024-01-05T12:01:21.280Z,1.03
2024-01-05T12:03:49.172Z,0.90
2024-01-05T12:06:16.719Z,0.77
2024-01-05T12:08:44.295Z,0.60
2024-01-05T12:11:12.969Z,0.83
2024-01-05T12:13:41.654Z,0.83
2024-01-05T12:16:11.783Z,1.00
2024-01-05T12:18:44.763Z,0.90
2024-01-05T12:21:13.388Z,0.80
2024-01-05T12:23:43.479Z,0.80
2024-01-05T12:26:11.733Z,0.70
2024-01-05T12:28:41.824Z,1.10
2024-01-05T12:31:11.979Z,0.80
2024-01-05T12:33:40.772Z,0.97
2024-01-05T12:36:12.550Z,0.90
2024-01-05T12:38:41.153Z,0.70
2024-01-05T12:41:09.688Z,0.97
2024-01-05T12:43:37.521Z,0.90
2024-01-05T12:46:06.793Z,0.80
2024-01-05T12:48:35.914Z,0.60
2024-01-05T12:51:07.101Z,0.90
2024-01-05T12:53:34.732Z,0.60
2024-01-05T12:56:09.979Z,0.70
2024-01-05T12:58:39.577Z,1.40
2024-01-05T13:01:07.770Z,3.00
2024-01-05T13:03:36.657Z,4.83
2024-01-05T13:06:08.397Z,3.90
2024-01-05T13:08:36.876Z,1.60
2024-01-05T13:11:05.297Z,0.83
2024-01-05T13:13:32.673Z,0.80
2024-01-05T13:16:02.345Z,0.97
2024-01-05T13:18:30.561Z,0.50
2024-01-05T13:21:00.141Z,0.77
2024-01-05T13:23:30.577Z,0.60
2024-01-05T13:25:58.009Z,0.50
2024-01-05T13:28:25.414Z,0.80
2024-01-05T13:30:53.359Z,0.63
2024-01-05T13:33:21.167Z,0.70
2024-01-05T13:35:49.909Z,0.70
2024-01-05T13:38:19.642Z,0.80
2024-01-05T13:40:48.612Z,0.60
2024-01-05T13:43:17.153Z,0.90
2024-01-05T13:45:44.664Z,0.67
2024-01-05T13:48:12.257Z,0.80
2024-01-05T13:50:40.691Z,0.70
2024-01-05T13:53:12.190Z,0.50
2024-01-05T13:55:41.348Z,0.73
2024-01-05T13:58:09.491Z,0.60
2024-01-05T14:00:37.408Z,0.53
2024-01-05T14:03:05.993Z,0.77
2024-01-05T14:05:33.495Z,0.63
2024-01-05T14:08:01.119Z,1.00
2024-01-05T14:10:28.552Z,0.80
2024-01-05T14:12:59.727Z,0.60
2024-01-05T14:15:28.824Z,0.97
2024-01-05T14:17:56.566Z,1.00
2024-01-05T14:20:23.972Z,0.90
2024-01-05T14:22:51.375Z,0.70
2024-01-05T14:25:19.699Z,0.80
2024-01-05T14:27:48.290Z,0.50
2024-01-05T14:30:17.512Z,0.57
2024-01-05T14:32:46.280Z,1.33
2024-01-05T14:35:13.800Z,0.90
2024-01-05T14:37:42.190Z,0.90
2024-01-05T14:40:12.670Z,0.60
2024-01-05T14:42:40.294Z,0.87
2024-01-05T14:45:08.153Z,0.80
2024-01-05T14:47:37.872Z,0.60
2024-01-05T14:50:06.730Z,0.73
2024-01-05T14:52:35.332Z,0.80
2024-01-05T14:55:02.729Z,0.70
2024-01-05T14:57:30.176Z,0.60
2024-01-05T14:59:57.634Z,0.90
2024-01-05T15:02:26.415Z,0.70
2024-01-05T15:04:55.965Z,0.80
2024-01-05T15:07:23.720Z,0.50
2024-01-05T15:09:51.941Z,1.23
2024-01-05T15:12:19.447Z,1.53
2024-01-05T15:14:47.348Z,1.00
2024-01-05T15:17:14.902Z,0.90
2024-01-05T15:19:42.474Z,0.93
2024-01-05T15:22:11.259Z,0.80
2024-01-05T15:24:40.063Z,0.70
2024-01-05T15:27:07.766Z,0.83
2024-01-05T15:29:40.326Z,0.80
2024-01-05T15:32:08.496Z,0.73
2024-01-05T15:34:36.972Z,0.50
2024-01-05T15:37:04.693Z,0.73
2024-01-05T15:39:33.541Z,0.60
2024-01-05T15:42:01.111Z,1.07
2024-01-05T15:44:28.566Z,0.80
2024-01-05T15:46:56.071Z,0.90
2024-01-05T15:49:25.402Z,4.37
2024-01-05T15:51:54.086Z,1.50
2024-01-05T15:54:22.807Z,1.40
2024-01-05T15:56:52.702Z,1.87
2024-01-05T15:59:21.612Z,2.07
2024-01-05T16:01:50.978Z,10.37
2024-01-05T16:04:18.515Z,14.77
2024-01-05T16:06:46.305Z,20.90
2024-01-05T16:09:13.789Z,15.83
2024-01-05T16:11:42.311Z,7.27
2024-01-05T16:14:14.697Z,4.90
2024-01-05T16:16:43.777Z,8.60
2024-01-05T16:19:11.365Z,5.30
2024-01-05T16:21:39.134Z,5.17
2024-01-05T16:24:09.132Z,3.07
2024-01-05T16:26:36.702Z,2.37
2024-01-05T16:29:04.226Z,1.50
2024-01-05T16:31:33.184Z,1.47
2024-01-05T16:34:00.905Z,2.30
2024-01-05T16:36:28.476Z,2.20
2024-01-05T16:38:55.957Z,1.87
2024-01-05T16:41:25.939Z,2.30
2024-01-05T16:43:56.286Z,5.97
2024-01-05T16:46:26.788Z,16.23
2024-01-05T16:48:56.764Z,17.00
2024-01-05T16:51:25.875Z,12.17
2024-01-05T16:53:57.126Z,5.10
2024-01-05T16:56:28.289Z,3.57
2024-01-05T16:58:56.966Z,3.30
2024-01-05T17:01:24.907Z,2.30
2024-01-05T17:03:54.865Z,1.50
2024-01-05T17:06:23.881Z,2.57
2024-01-05T17:08:54.040Z,1.60
2024-01-05T17:11:23.047Z,2.30
2024-01-05T17:13:52.382Z,1.80
2024-01-05T17:16:20.129Z,2.30
2024-01-05T17:18:49.564Z,1.53
2024-01-05T17:21:17.882Z,1.30
2024-01-05T17:23:46.828Z,1.20
2024-01-05T17:26:14.283Z,1.60
2024-01-05T17:28:42.996Z,1.87
2024-01-05T17:31:10.752Z,1.97
2024-01-05T17:33:38.895Z,1.90
2024-01-05T17:36:06.623Z,2.07
2024-01-05T17:38:35.266Z,2.93
2024-01-05T17:41:04.642Z,2.20
2024-01-05T17:43:32.829Z,2.03
2024-01-05T17:46:04.370Z,1.80
2024-01-05T17:48:31.887Z,1.10
2024-01-05T17:51:02.787Z,1.20
2024-01-05T17:53:31.246Z,1.40
2024-01-05T17:55:59.327Z,1.10
2024-01-05T17:58:29.092Z,1.53
2024-01-05T18:00:56.571Z,3.40
2024-01-05T18:03:24.511Z,3.33
2024-01-05T18:05:53.106Z,2.70
2024-01-05T18:08:20.513Z,1.50
2024-01-05T18:10:47.961Z,1.30
2024-01-05T18:13:16.569Z,1.30
2024-01-05T18:15:45.402Z,1.00
2024-01-05T18:18:13.091Z,1.27
2024-01-05T18:20:40.653Z,1.20
2024-01-05T18:23:08.111Z,1.03
2024-01-05T18:25:37.431Z,1.50
2024-01-05T18:28:05.729Z,1.10
2024-01-05T18:30:33.444Z,1.10
2024-01-05T18:33:02.581Z,1.20
2024-01-05T18:35:31.724Z,1.10
2024-01-05T18:37:59.295Z,1.47
2024-01-05T18:40:26.784Z,1.17
2024-01-05T18:42:54.853Z,1.20
2024-01-05T18:45:22.302Z,1.10
2024-01-05T18:47:52.003Z,1.20
2024-01-05T18:50:20.888Z,1.20
2024-01-05T18:52:48.643Z,1.40
2024-01-05T18:55:17.097Z,1.60
2024-01-05T18:57:45.897Z,1.40
2024-01-05T19:00:14.358Z,1.60
2024-01-05T19:02:42.177Z,1.50
2024-01-05T19:05:10.030Z,1.80
2024-01-05T19:07:40.542Z,1.40
2024-01-05T19:10:10.225Z,1.97
2024-01-05T19:12:37.711Z,1.70
2024-01-05T19:15:09.310Z,1.70
2024-01-05T19:17:40.249Z,1.30
2024-01-05T19:20:09.970Z,1.53
2024-01-05T19:22:41.442Z,1.50
2024-01-05T19:25:10.561Z,1.30
2024-01-05T19:27:38.097Z,1.30
2024-01-05T19:30:07.845Z,1.20
2024-01-05T19:32:35.800Z,1.43
2024-01-05T19:35:04.837Z,1.37
2024-01-05T19:37:33.135Z,1.27
2024-01-05T19:40:00.619Z,1.40
2024-01-05T19:42:29.577Z,1.27
2024-01-05T19:44:58.038Z,1.23
2024-01-05T19:47:26.313Z,1.40
2024-01-05T19:49:54.402Z,1.37
2024-01-05T19:52:23.166Z,1.13
2024-01-05T19:54:54.082Z,1.70
2024-01-05T19:57:21.894Z,1.40
2024-01-05T19:59:51.221Z,1.70
2024-01-05T20:02:18.709Z,2.63
2024-01-05T20:04:48.229Z,7.70
2024-01-05T20:07:15.809Z,7.10
2024-01-05T20:09:43.447Z,6.50
2024-01-05T20:12:18.363Z,4.53
2024-01-05T20:14:45.928Z,3.50
2024-01-05T20:17:17.077Z,2.57
2024-01-05T20:19:44.629Z,2.30
2024-01-05T20:22:12.129Z,2.00
2024-01-05T20:24:39.567Z,2.03
2024-01-05T20:27:07.416Z,4.30
2024-01-05T20:29:40.632Z,4.43
2024-01-05T20:32:09.556Z,6.23
2024-01-05T20:34:39.137Z,3.60
2024-01-05T20:37:06.709Z,3.57
2024-01-05T20:39:34.301Z,5.13
2024-01-05T20:42:01.781Z,4.20
2024-01-05T20:44:29.214Z,2.70
2024-01-05T20:46:57.939Z,1.97
2024-01-05T20:49:26.813Z,1.70
2024-01-05T20:51:56.827Z,1.50
2024-01-05T20:54:25.367Z,1.83
2024-01-05T20:56:52.811Z,1.60
2024-01-05T20:59:20.837Z,1.83
2024-01-05T21:01:48.680Z,1.83
2024-01-05T21:04:16.805Z,1.53
2024-01-05T21:06:46.081Z,1.60
2024-01-05T21:09:15.715Z,1.43
2024-01-05T21:11:43.757Z,1.60
2024-01-05T21:14:11.687Z,1.50
2024-01-05T21:16:40.618Z,1.50
2024-01-05T21:19:09.869Z,1.33
2024-01-05T21:21:41.796Z,1.70
2024-01-05T21:24:09.553Z,1.30
2024-01-05T21:26:42.724Z,1.40
2024-01-05T21:29:12.564Z,1.33
2024-01-05T21:31:45.356Z,1.50
2024-01-05T21:34:12.944Z,1.03
2024-01-05T21:36:44.313Z,1.50
2024-01-05T21:39:11.886Z,1.23
2024-01-05T21:41:40.622Z,1.13
2024-01-05T21:44:09.885Z,1.13
2024-01-05T21:46:38.968Z,1.13
2024-01-05T21:49:08.388Z,1.17
2024-01-05T21:51:36.999Z,0.80
2024-01-05T21:54:04.713Z,1.30
2024-01-05T21:56:33.435Z,0.93
2024-01-05T21:59:01.291Z,0.77
2024-01-05T22:01:30.662Z,1.23
2024-01-05T22:03:58.371Z,0.90
2024-01-05T22:06:26.134Z,1.10
2024-01-05T22:08:54.752Z,1.00
2024-01-05T22:11:24.567Z,1.10
2024-01-05T22:13:52.200Z,1.10
2024-01-05T22:16:19.894Z,0.90
2024-01-05T22:18:50.240Z,0.87
2024-01-05T22:21:23.381Z,1.10
2024-01-05T22:23:52.307Z,0.83
2024-01-05T22:26:20.865Z,1.07
2024-01-05T22:28:48.383Z,1.30
2024-01-05T22:31:16.080Z,1.10
2024-01-05T22:33:43.888Z,1.70
2024-01-05T22:36:13.409Z,1.87
2024-01-05T22:38:41.534Z,3.07
2024-01-05T22:41:09.633Z,3.20
2024-01-05T22:43:38.930Z,2.47
2024-01-05T22:46:06.633Z,1.50
2024-01-05T22:48:36.368Z,1.63
2024-01-05T22:51:05.600Z,2.27
2024-01-05T22:53:39.088Z,1.97
2024-01-05T22:56:12.332Z,1.47
2024-01-05T22:58:39.750Z,1.00
2024-01-05T23:01:08.032Z,1.40
2024-01-05T23:03:36.669Z,1.33
2024-01-05T23:06:04.223Z,1.20
2024-01-05T23:08:31.673Z,1.10
2024-01-05T23:11:01.006Z,1.00
2024-01-05T23:13:28.389Z,1.43
2024-01-05T23:15:57.040Z,1.20
2024-01-05T23:18:27.431Z,1.10
2024-01-05T23:20:55.403Z,1.60
2024-01-05T23:23:23.133Z,1.03
2024-01-05T23:25:50.779Z,2.03
2024-01-05T23:28:19.809Z,1.90
2024-01-05T23:30:48.360Z,1.87
2024-01-05T23:33:16.572Z,1.70
2024-01-05T23:35:44.156Z,2.10
2024-01-05T23:38:11.704Z,1.60
2024-01-05T23:40:39.146Z,1.60
2024-01-05T23:43:06.900Z,1.30
2024-01-05T23:45:36.915Z,1.13
2024-01-05T23:48:05.772Z,1.40
2024-01-05T23:50:33.375Z,1.00
2024-01-05T23:53:03.055Z,1.17
2024-01-05T23:55:32.066Z,1.40
2024-01-05T23:58:00.139Z,1.07
